Thompson, Missouri
Current Conditions -  °F | °C
As of 12:54 PM on Thursday 30 Oct 2014 (Local Time) from KCOU Reporting Station
Light Rain Light Rain  
Wind Chill:   Ceiling: 7500
Heat Index:   Visibility: 7mi
Dew Point:   Wind: 14mph
Humidity: 83%   Direction: 180°S
Pressure: 30.03"   Gusts: NA
Location:  39.19°N, 91.98°W
Report Text: KCOU 301754Z 18012KT 7SM -RA SCT055 OVC075 09/06 A3003 RMK AO2 RAE00B16 SLP172 P0001 60001 T00890061 10089 20044 57021
Loading
Personal Weather Stations






























Interactive Weather Map
Tropical Storm Tracking
New forecast layout! Learn more

10-Day Weather Forecast

Advertisements
Track Severe Weather on mobile